Windhoek, Namibia
Current Conditions -  °F | °C
As of 10:00 PM on Monday 20 Oct 2014 (Local Time) from FYWW Reporting Station
NA  
Wind Chill: 72°   Ceiling: NA
Heat Index: 72°   Visibility: NA
Dew Point: 23°   Wind: 3mph
Humidity: 16%   Direction: 200°SSW
Pressure: 30.21"   Gusts: NA
Location:  22.56°S, 17.09°E
Report Text: FYWW 202100Z AUTO 20003KT //// // ////// 22/M05 Q1023
Loading
Personal Weather Stations






























Interactive Weather Map New forecast layout! Learn more

10-Day Weather Forecast

Advertisements
Track Severe Weather on mobile